LEASLEVD

Guest
Details From LEAS - Asturias
To LEVD - Valladolid - Villanubla
Flight Number -
Tags generated
Created
Modified
Stats Distance 124 nm / 230 km
Max Altitude 8,900 ft / 2,713 m
Waypoints 4
Social Downloads 2
Likes 0
Share VATSIM

Download

Looking for another format? Having issues loading an existing format? Contact us
Advertisement - Login to hide

Notes

Basic altitude profile: - Ascent Rate: 2500ft/min - Ascent Speed: 250kts - Cruise Altitude: 35000ft - Cruise Speed: 420kts - Descent Rate: 1500ft/min - Descent Speed: 250kts Options: - Use NATs: yes - Use PACOTS: yes - Use low airways: yes - Use high airways: yes

Route

LEAS RATPO R107 MERCE LEVD

ID Type Via Altitude Latitude Longitude Leg Dist Tot Dist Heading (true) Name
O LEAS APT - 0 ft / 0 m 43.56350˚ -6.03467˚ - 0 nm - Asturias
RATPO FIX - 5,300 ft / 1,615 m 43.31711˚ -5.98170˚ 14 nm 14 nm 171° / 171° -
MERCE FIX R107 (AWY-LO) 8,900 ft / 2,713 m 43.15212˚ -5.94928˚ 10 nm 24 nm 172° / 172° -
O LEVD APT - 0 ft / 0 m 41.70827˚ -4.85528˚ 99 nm 124 nm 150° / 151° Valladolid - Villanubla

Altitude Profile

Advertisement - Login to hide

LEAS

Details ICAO LEAS (OVD)
Name Asturias
Region Spain
Timezone Europe/Madrid (UTC+1.0)
Stats Elevation 416 ft / 127 m (AMSL)
Location 43.563496° -6.034670°
Runways 1
Magnetic Variation 1.628° W

METAR

LEAS 151217Z 28012G22KT 4000 SHRA SCT035 SCT040TCU 12/06 Q1015 NOSIG

Decode

TAF

TAF LEAS 150800Z 1509/1609 32012KT 9999 SCT025 BKN035 TX12/1515Z TN06/1607Z TEMPO 1509/1523 29016G28KT TEMPO 1509/1609 3000 RA BKN010 PROB30 TEMPO 1509/1609 3000 SHRA SCT030TCU

Decode

Departure Runways

ID Width Length Bearing (true) Bearing (mag) Surface Threshold Offset Overrun Length
11 148 ft / 45 m 7,216 ft / 2,200 m 108.09° 109.72° Asphalt 0 ft / 0 m 164 ft / 50 m
29 148 ft / 45 m 7,216 ft / 2,200 m 288.10° 289.73° Asphalt 0 ft / 0 m 164 ft / 50 m

LEVD

Details ICAO LEVD (VLL)
Name Valladolid - Villanubla
Region Spain
Timezone Europe/Madrid (UTC+1.0)
Stats Elevation 2,775 ft / 846 m (AMSL)
Location 41.708270° -4.855278°
Runways 2
Magnetic Variation 1.131° W

METAR

LEVD 151200Z 34011KT 9999 FEW012 07/01 Q1012

Decode

TAF

TAF LEVD 151100Z 1512/1612 32012KT 9999 FEW040 TX09/1515Z TNM02/1607Z PROB30 TEMPO 1512/1518 3000 RA BECMG 1517/1519 VRB05KT

Decode

Destination Runways

ID Width Length Bearing (true) Bearing (mag) Surface Threshold Offset Overrun Length
05 197 ft / 60 m 9,851 ft / 3,003 m 45.09° 46.22° Asphalt 0 ft / 0 m 676 ft / 206 m
15 197 ft / 60 m 2,975 ft / 907 m 144.18° 145.31° Dirt 0 ft / 0 m 213 ft / 65 m
23 197 ft / 60 m 9,851 ft / 3,003 m 225.10° 226.23° Asphalt 0 ft / 0 m 164 ft / 50 m
33 197 ft / 60 m 2,975 ft / 907 m 324.18° 325.31° Dirt 0 ft / 0 m 656 ft / 200 m

Approach Navaids

Runway Type Ident Frequency Range Bearing (true) Bearing (mag) Slope Elevation
23 Localiser IVD 109.30 MHz 18 nm / 33 km 225.13° 226.26° - 2,779 ft / 847 m (AMSL)
23 Glidescope IVD 109.30 MHz 10 nm / 19 km 225.10° 226.23° 2.80° 2,775 ft / 846 m (AMSL)